Terminal Aerodrome Forecast
Issued by NWS Cleveland, OH

Home | Current Version | Previous Version | Graphics & Text | Print | Product List | Glossary On
Versions: 1 2 3 4 5 6 7 8 9 10 11 12 13 14 15 16 17 18
343
FTUS41 KCLE 190545
TAFCAK
TAF
KCAK 190545Z 1906/2006 08006KT P6SM OVC040
     FM190800 01010G19KT 5SM -RASN OVC012
     FM190900 36012G22KT 4SM -SN OVC006
      TEMPO 1909/1911 2SM -SN OVC006
     FM191500 34015G25KT P6SM VCSH OVC012
     FM200100 32004KT P6SM SKC=

USA.gov is the U.S. government's official web portal to all federal, state and local government web resources and services.